Time;durP1;ratioP1;P1;durP2;ratioP2;P2;SDS_P1;SDS_P2;PMS_P1;PMS_P2;Temp;Humidity;BMP_temperature;BMP_pressure;BME280_temperature;BME280_humidity;BME280_pressure;Samples;Min_cycle;Max_cycle;Signal;HPM_P1;HPM_P2
2021/10/25 00:02:16;;;;;;;2.58;1.25;;;20.30;43.80;;;23.98;29.46;101702.66;5054237;28;20057;-6
2021/10/25 00:04:42;;;;;;;1.20;0.93;;;20.40;43.90;;;24.01;29.46;101712.31;5054688;28;20045;-6
2021/10/25 00:07:08;;;;;;;2.03;1.30;;;20.30;43.80;;;24.00;29.48;101710.56;5054391;28;20045;-6
2021/10/25 00:09:34;;;;;;;1.30;1.20;;;20.30;43.90;;;23.99;29.42;101704.38;5054270;28;20045;-6
2021/10/25 00:12:00;;;;;;;2.13;1.20;;;20.30;43.80;;;23.98;29.49;101697.31;5054256;28;20178;-6
2021/10/25 00:14:26;;;;;;;1.02;0.93;;;20.30;43.80;;;23.99;29.57;101704.38;5054759;28;20052;-6
2021/10/25 00:16:52;;;;;;;1.35;1.20;;;20.30;43.80;;;23.97;29.58;101692.94;5053712;28;20047;-6
2021/10/25 00:19:19;;;;;;;1.80;1.38;;;20.30;43.90;;;23.99;29.68;101701.72;5053816;28;20053;-6
2021/10/25 00:21:47;;;;;;;1.77;1.25;;;20.30;43.80;;;23.98;29.50;101696.47;5054323;28;20060;-6
2021/10/25 00:24:13;;;;;;;1.35;0.93;;;20.30;43.80;;;24.00;29.39;101695.41;5054528;28;20081;-6
2021/10/25 00:26:39;;;;;;;1.20;1.10;;;20.30;43.80;;;24.00;29.52;101692.72;5053973;28;20091;-6
2021/10/25 00:29:05;;;;;;;1.20;1.10;;;20.30;43.80;;;23.98;29.60;101685.78;5053973;28;20455;-6
2021/10/25 00:31:32;;;;;;;2.08;1.20;;;20.30;43.80;;;24.00;29.39;101690.06;5053952;28;20079;-6
2021/10/25 00:33:58;;;;;;;1.42;1.13;;;20.30;43.80;;;24.00;29.32;101687.38;5053768;28;20473;-6
2021/10/25 00:36:24;;;;;;;1.30;1.20;;;20.30;43.80;;;23.99;29.37;101690.16;5053809;28;20049;-6
2021/10/25 00:38:50;;;;;;;2.28;1.40;;;20.30;43.80;;;23.99;29.34;101682.13;5053739;28;20048;-6
2021/10/25 00:41:17;;;;;;;1.10;1.00;;;20.30;43.80;;;23.99;29.37;101688.38;5053688;28;20057;-6
2021/10/25 00:43:44;;;;;;;1.30;1.20;;;20.30;43.80;;;23.96;29.34;101680.53;5053720;28;20060;-6
2021/10/25 00:46:11;;;;;;;1.50;1.23;;;20.30;43.80;;;23.99;29.41;101682.13;5053799;28;20128;-6
2021/10/25 00:48:41;;;;;;;1.90;1.10;;;20.30;43.80;;;23.97;29.38;101676.03;5053640;28;20412;-6
2021/10/25 00:51:10;;;;;;;2.60;1.23;;;20.30;43.80;;;23.98;29.46;101678.63;5036156;28;20053;-6
2021/10/25 00:53:41;;;;;;;1.45;1.20;;;20.30;43.90;;;23.99;29.57;101677.69;5052613;28;20084;-6
2021/10/25 00:56:10;;;;;;;1.20;1.10;;;20.30;43.90;;;23.99;29.39;101676.78;5053842;28;20045;-6
2021/10/25 00:58:37;;;;;;;2.53;1.30;;;20.30;43.90;;;23.95;29.60;101668.13;5053250;28;20542;-6
2021/10/25 01:01:04;;;;;;;1.90;1.33;;;20.30;43.90;;;23.97;29.66;101678.72;5051820;28;20135;-6
2021/10/25 01:03:31;;;;;;;1.98;1.25;;;20.30;43.80;;;23.98;29.38;101677.75;5049492;28;20073;-6
2021/10/25 01:05:57;;;;;;;1.77;1.30;;;20.30;43.90;;;23.95;29.33;101673.47;5053622;28;20044;-6
2021/10/25 01:08:26;;;;;;;1.45;1.15;;;20.30;43.90;;;23.97;29.33;101678.72;5050801;28;20057;-6
2021/10/25 01:10:52;;;;;;;1.20;1.10;;;20.30;43.90;;;23.98;29.52;101680.44;5053132;28;20053;-6
2021/10/25 01:13:19;;;;;;;1.42;1.30;;;20.30;43.80;;;23.98;29.43;101669.75;5049179;28;20054;-6
2021/10/25 01:15:45;;;;;;;1.10;1.00;;;20.30;43.80;;;23.98;29.34;101675.09;5053721;28;20049;-6
2021/10/25 01:18:11;;;;;;;1.23;1.13;;;20.30;43.80;;;23.95;29.31;101660.09;5035160;28;20068;-6
2021/10/25 01:20:38;;;;;;;2.50;1.27;;;20.30;43.80;;;23.97;29.53;101663.56;5051699;28;20393;-6
2021/10/25 01:23:04;;;;;;;1.20;1.10;;;20.30;43.80;;;23.98;29.55;101662.59;5035592;28;20037;-6
2021/10/25 01:25:30;;;;;;;1.27;1.17;;;20.30;43.80;;;23.99;29.54;101664.31;5033072;28;20053;-6
2021/10/25 01:27:57;;;;;;;2.20;1.10;;;20.30;43.80;;;23.98;29.41;101659.06;5035144;28;20055;-6
2021/10/25 01:30:23;;;;;;;1.33;1.23;;;20.30;43.70;;;24.00;29.41;101662.50;5033419;28;20046;-6
2021/10/25 01:32:50;;;;;;;2.00;1.20;;;20.30;43.80;;;23.99;29.55;101647.41;5034206;28;20379;-6
2021/10/25 01:35:18;;;;;;;1.92;1.20;;;20.30;43.70;;;23.99;29.36;101653.63;5052000;28;20057;-6
2021/10/25 01:37:44;;;;;;;2.15;1.30;;;20.30;43.70;;;23.99;29.30;101650.97;5051819;28;20049;-6
2021/10/25 01:40:11;;;;;;;1.60;1.35;;;20.30;43.70;;;23.95;29.36;101646.75;5033952;28;20041;-6
2021/10/25 01:42:38;;;;;;;1.40;1.27;;;20.30;43.70;;;23.98;29.30;101648.38;5035166;28;20055;-6
2021/10/25 01:45:07;;;;;;;1.35;1.10;;;20.30;43.70;;;23.98;29.37;101651.91;5051533;28;20090;-6
2021/10/25 01:47:34;;;;;;;1.98;1.40;;;20.30;43.70;;;23.98;29.47;101651.06;5033382;28;20050;-6
2021/10/25 01:50:00;;;;;;;1.30;1.20;;;20.30;43.60;;;23.98;29.39;101645.72;5051586;28;20044;-6
2021/10/25 01:52:27;;;;;;;1.60;1.30;;;20.30;43.60;;;23.99;29.34;101640.28;5034839;28;20405;-6
2021/10/25 01:54:56;;;;;;;2.17;1.10;;;20.30;43.60;;;24.00;29.39;101646.47;5033766;28;20144;-6
2021/10/25 01:57:22;;;;;;;1.23;1.10;;;20.30;43.70;;;23.96;29.23;101635.13;5051812;28;20140;-6
2021/10/25 01:59:48;;;;;;;1.35;1.25;;;20.30;43.70;;;23.99;29.42;101642.94;5034563;28;20406;-6
2021/10/25 02:02:16;;;;;;;2.25;1.10;;;20.30;43.60;;;23.99;29.49;101637.59;5034576;28;20045;-7
2021/10/25 02:04:42;;;;;;;1.60;1.50;;;20.30;43.70;;;23.99;29.51;101637.59;5034548;28;20041;-6
2021/10/25 02:07:09;;;;;;;2.03;1.15;;;20.30;43.70;;;24.01;29.29;101640.19;5033247;28;20046;-7
2021/10/25 02:09:35;;;;;;;1.42;1.20;;;20.30;43.60;;;23.99;29.49;101637.59;5032532;28;20095;-7
2021/10/25 02:12:01;;;;;;;1.38;1.15;;;20.30;43.60;;;24.01;29.35;101642.84;5034299;28;20477;-7
2021/10/25 02:14:26;;;;;;;1.38;1.13;;;20.30;43.60;;;23.98;29.32;101635.03;5034504;28;20048;-6
2021/10/25 02:16:53;;;;;;;1.42;1.10;;;20.30;43.60;;;24.01;29.29;101642.84;5051153;28;20484;-6
2021/10/25 02:19:19;;;;;;;1.45;1.30;;;20.30;43.60;;;23.97;29.28;101622.63;5034183;28;20461;-6
2021/10/25 02:22:04;;;;;;;2.58;1.10;;;20.30;43.60;;;24.01;29.35;101621.47;5034726;28;20049;-6
2021/10/25 02:24:30;;;;;;;1.30;1.20;;;20.40;43.60;;;23.96;29.46;101610.22;5034383;28;20041;-6
2021/10/25 02:26:56;;;;;;;1.38;1.27;;;20.30;43.60;;;24.02;29.28;101615.16;5052213;28;20045;-6
2021/10/25 02:29:24;;;;;;;1.92;1.38;;;20.30;43.60;;;24.00;29.43;101612.59;5049317;28;20485;-7
2021/10/25 02:31:50;;;;;;;1.30;1.20;;;20.30;43.80;;;23.97;29.43;101606.59;5034639;28;20056;-6
2021/10/25 02:34:17;;;;;;;1.80;1.35;;;20.30;43.80;;;24.00;29.39;101617.09;5034127;28;20068;-6
2021/10/25 02:36:44;;;;;;;1.83;1.48;;;20.30;43.80;;;23.99;29.48;101610.00;5034311;28;20049;-6
2021/10/25 02:39:18;;;;;;;2.20;1.23;;;20.30;43.70;;;24.02;29.49;101613.38;5034226;28;20056;-6
2021/10/25 02:41:44;;;;;;;2.10;1.52;;;20.30;43.70;;;24.06;29.27;101616.72;5036617;28;20122;-6
2021/10/25 02:44:11;;;;;;;1.50;1.25;;;20.30;43.70;;;24.05;29.16;101615.81;5055608;28;20056;-6
2021/10/25 02:46:36;;;;;;;1.17;1.08;;;20.30;43.70;;;24.06;29.33;101614.03;5055594;28;20060;-6
2021/10/25 02:49:04;;;;;;;1.17;1.10;;;20.30;43.60;;;24.08;29.21;101608.59;5053205;28;20501;-6
2021/10/25 02:51:30;;;;;;;2.05;1.67;;;20.30;43.60;;;24.10;29.10;101612.03;5037875;28;20041;-6
2021/10/25 02:53:57;;;;;;;2.00;1.30;;;20.30;43.70;;;24.09;29.10;101604.94;5035908;28;20490;-6
2021/10/25 02:56:29;;;;;;;1.40;1.05;;;20.30;43.70;;;24.12;29.21;101610.09;5037994;28;20049;-6
2021/10/25 02:58:55;;;;;;;1.73;1.33;;;20.30;43.70;;;24.13;29.20;101607.34;5054598;28;20048;-6
2021/10/25 03:01:21;;;;;;;1.63;1.27;;;20.30;43.60;;;24.13;29.33;101601.16;5037622;28;20084;-6
2021/10/25 03:03:47;;;;;;;2.13;1.50;;;20.40;43.70;;;24.14;29.09;101601.06;5036835;28;20049;-6
2021/10/25 03:06:14;;;;;;;1.50;1.23;;;20.40;43.50;;;24.17;29.19;101606.19;5035718;28;20056;-6
2021/10/25 03:08:41;;;;;;;1.30;1.20;;;20.40;43.50;;;24.18;29.09;101602.56;5037504;28;20045;-6
2021/10/25 03:11:08;;;;;;;2.35;1.20;;;20.40;43.50;;;24.19;29.07;101601.63;5036756;28;20056;-7
2021/10/25 03:13:36;;;;;;;1.63;1.35;;;20.40;43.50;;;24.18;29.38;101594.53;5053839;28;20045;-6
2021/10/25 03:16:02;;;;;;;1.27;1.15;;;20.40;43.60;;;24.21;29.09;101590.81;5036241;28;20057;-6
2021/10/25 03:18:29;;;;;;;1.40;1.30;;;20.40;43.60;;;24.22;29.04;101596.06;5035287;28;20046;-6
2021/10/25 03:20:55;;;;;;;1.20;1.10;;;20.40;43.60;;;24.22;29.27;101595.19;5053055;28;20095;-7
2021/10/25 03:23:24;;;;;;;1.10;1.00;;;20.40;43.70;;;24.20;29.14;101595.28;5053649;28;20056;-6
2021/10/25 03:25:49;;;;;;;1.52;1.13;;;20.30;43.70;;;24.24;29.01;101593.31;5036163;28;20099;-6
2021/10/25 03:28:15;;;;;;;1.58;1.25;;;20.40;43.70;;;24.25;29.04;101594.16;5055470;28;20393;-6
2021/10/25 03:30:42;;;;;;;2.08;1.33;;;20.40;43.70;;;24.22;29.03;101582.72;5054839;28;20390;-6
2021/10/25 03:33:09;;;;;;;1.13;1.02;;;20.40;43.60;;;24.23;28.92;101592.44;5037112;28;20041;-6
2021/10/25 03:35:45;;;;;;;1.27;1.17;;;20.30;43.50;;;24.23;28.95;101588.91;5037125;28;20045;-6
2021/10/25 03:38:15;;;;;;;1.50;1.40;;;20.30;43.40;;;24.19;29.15;101582.03;5036846;28;20045;-6
2021/10/25 03:40:44;;;;;;;1.33;1.20;;;20.30;43.60;;;24.23;29.18;101588.91;5053323;28;20417;-7
2021/10/25 03:43:10;;;;;;;1.70;1.15;;;20.30;43.70;;;24.21;29.05;101588.16;5037305;28;20476;-6
2021/10/25 03:45:41;;;;;;;1.92;1.42;;;20.20;43.80;;;24.20;28.96;101586.44;5035132;28;20045;-6
2021/10/25 03:50:52;;;;;;;1.80;1.27;;;20.30;43.60;;;24.23;29.17;101588.91;5035069;28;20152;-7
2021/10/25 03:56:50;;;;;;;2.65;1.50;;;20.30;43.60;;;24.25;29.07;101595.00;5004029;28;20045;-6
2021/10/25 04:01:55;;;;;;;2.05;1.48;;;20.40;43.40;;;24.23;29.10;101584.41;5036358;28;20052;-7
2021/10/25 04:27:11;;;;;;;1.77;1.38;;;20.40;43.50;;;24.16;29.00;101574.22;5036529;28;20041;-6
2021/10/25 04:29:38;;;;;;;1.63;1.33;;;20.40;43.40;;;24.17;29.12;101575.94;5035804;28;20053;-6
2021/10/25 04:32:07;;;;;;;1.30;1.20;;;20.40;43.30;;;24.12;29.11;101570.03;5051253;28;20462;-6
2021/10/25 04:34:34;;;;;;;2.35;1.50;;;20.40;43.40;;;24.14;29.26;101566.31;5051871;28;20458;-6
2021/10/25 04:37:32;;;;;;;2.05;1.35;;;20.40;43.40;;;24.15;29.10;101572.50;5030807;28;20473;-6
2021/10/25 04:40:08;;;;;;;2.17;1.50;;;20.40;43.40;;;24.12;29.17;101570.88;5052445;28;20041;-6
2021/10/25 04:42:35;;;;;;;2.45;1.63;;;20.30;43.50;;;24.14;29.13;101571.66;5052673;28;20056;-6
2021/10/25 04:45:03;;;;;;;1.80;1.30;;;20.40;43.40;;;24.12;28.94;101572.69;5035724;28;20056;-6
2021/10/25 04:47:29;;;;;;;2.50;1.48;;;20.40;43.30;;;24.15;29.22;101577.84;5050624;28;20041;-6
2021/10/25 04:49:56;;;;;;;1.77;1.23;;;20.40;43.30;;;24.11;29.24;101571.84;5035822;28;20068;-6
2021/10/25 04:52:27;;;;;;;1.95;1.40;;;20.40;43.30;;;24.14;29.06;101573.44;5053878;28;20144;-6
2021/10/25 04:54:53;;;;;;;1.42;1.20;;;20.40;43.20;;;24.09;29.19;101560.41;5052244;28;20076;-6
2021/10/25 04:57:19;;;;;;;2.00;1.42;;;20.40;43.30;;;24.14;28.87;101566.31;5053164;28;20083;-6
2021/10/25 04:59:45;;;;;;;1.48;1.20;;;20.40;43.70;;;24.14;28.88;101557.41;5034387;28;20045;-6
2021/10/25 05:02:12;;;;;;;2.22;1.60;;;20.40;43.20;;;24.13;28.97;101563.75;5035419;28;20056;-7
2021/10/25 05:04:39;;;;;;;2.22;1.50;;;20.40;43.10;;;24.15;28.87;101560.00;5035328;28;20077;-6
2021/10/25 05:07:05;;;;;;;2.10;1.50;;;20.40;43.20;;;24.14;29.10;101566.31;5035409;28;20504;-6
2021/10/25 05:09:31;;;;;;;2.33;1.50;;;20.40;43.20;;;24.13;28.88;101555.72;5033659;28;20053;-7
2021/10/25 05:11:57;;;;;;;1.50;1.40;;;20.40;43.10;;;24.15;29.10;101554.66;5052014;28;20048;-7
2021/10/25 05:14:23;;;;;;;2.10;1.38;;;20.40;43.10;;;24.15;28.82;101559.16;5034980;28;20417;-6
2021/10/25 05:16:53;;;;;;;2.58;1.30;;;20.40;43.10;;;24.14;28.95;101554.75;5035695;28;20049;-6
2021/10/25 05:19:19;;;;;;;2.55;1.50;;;20.40;43.00;;;24.12;28.87;101556.66;5033792;28;20137;-6
2021/10/25 05:21:50;;;;;;;2.40;1.63;;;20.50;43.00;;;24.15;28.99;101560.00;5035600;28;20049;-6
2021/10/25 05:24:16;;;;;;;1.50;1.17;;;20.40;43.20;;;24.11;28.85;101553.16;5051897;28;20114;-6
2021/10/25 05:26:41;;;;;;;2.25;1.60;;;20.30;43.40;;;24.15;28.93;101553.81;5053096;28;20053;-7
2021/10/25 05:29:07;;;;;;;3.83;1.50;;;20.30;43.40;;;24.14;28.98;101554.75;5052857;28;20503;-6
2021/10/25 05:31:33;;;;;;;2.15;1.50;;;20.30;43.40;;;24.16;28.95;101556.38;5033433;28;20409;-6
2021/10/25 05:33:59;;;;;;;3.50;1.55;;;20.40;43.30;;;24.15;28.92;101561.81;5035579;28;20366;-6
2021/10/25 05:36:24;;;;;;;2.10;1.40;;;20.30;43.40;;;24.12;29.02;101545.97;5051668;28;20389;-6
2021/10/25 05:38:52;;;;;;;2.22;1.65;;;20.40;43.40;;;24.14;29.14;101557.41;5033566;28;20046;-6
2021/10/25 05:41:18;;;;;;;2.13;1.40;;;20.30;43.40;;;24.12;28.92;101548.66;5033631;28;20084;-6
2021/10/25 05:43:46;;;;;;;3.53;1.85;;;20.30;43.40;;;24.10;28.91;101539.88;5035496;28;20493;-7
2021/10/25 05:46:12;;;;;;;4.63;1.52;;;20.40;43.40;;;24.10;29.26;101545.22;5034084;28;20038;-6
2021/10/25 05:48:40;;;;;;;3.08;1.75;;;20.40;43.70;;;24.10;29.12;101540.75;5034753;28;20041;-7
2021/10/25 05:51:12;;;;;;;2.45;1.70;;;20.40;43.60;;;24.10;28.95;101539.88;5033529;28;20050;-6
2021/10/25 05:53:38;;;;;;;1.90;1.42;;;20.30;43.70;;;24.11;29.26;101536.28;5034833;28;20045;-6
2021/10/25 05:56:04;;;;;;;6.20;1.88;;;20.30;43.80;;;24.10;29.24;101538.06;5052753;28;20051;-6
2021/10/25 05:58:32;;;;;;;2.83;1.67;;;20.40;43.70;;;24.10;29.01;101527.38;5034427;28;20049;-6
2021/10/25 06:01:02;;;;;;;5.15;1.70;;;20.40;43.70;;;24.12;29.37;101533.47;5033650;28;20107;-7
2021/10/25 06:03:42;;;;;;;2.80;1.88;;;20.40;43.70;;;24.14;29.03;101531.59;5033716;28;20136;-6
2021/10/25 06:06:10;;;;;;;2.42;1.60;;;20.40;43.70;;;24.12;29.19;101524.59;5051352;28;20492;-6
2021/10/25 06:08:39;;;;;;;7.72;1.70;;;20.40;43.70;;;24.10;29.04;101524.72;5051185;28;20489;-6
2021/10/25 06:11:10;;;;;;;1.85;1.65;;;20.40;43.70;;;24.14;29.24;101531.59;5034865;28;20570;-6
2021/10/25 06:13:45;;;;;;;3.35;2.08;;;20.40;43.70;;;24.15;29.10;101533.28;5052490;28;20052;-6
2021/10/25 06:18:42;;;;;;;2.58;1.67;;;20.40;43.60;;;24.13;29.24;101535.19;5032931;28;20081;-8
2021/10/25 06:21:10;;;;;;;3.70;1.70;;;20.50;43.50;;;24.14;29.10;101538.72;5034453;28;20135;-8
2021/10/25 06:23:37;;;;;;;3.05;1.85;;;20.50;44.10;;;24.18;29.15;101535.75;5051008;28;20076;-8
2021/10/25 06:26:11;;;;;;;5.95;2.00;;;20.50;43.40;;;24.18;29.34;101533.09;5051407;28;20055;-7
2021/10/25 06:28:41;;;;;;;4.13;1.85;;;20.50;43.40;;;24.20;29.10;101530.31;5051463;28;20445;-8
2021/10/25 06:31:09;;;;;;;2.60;1.73;;;20.60;43.20;;;24.22;28.95;101528.38;5052248;28;20053;-8
2021/10/25 06:33:54;;;;;;;2.50;1.70;;;20.60;43.10;;;24.30;28.97;101542.13;5052522;28;20125;-7
2021/10/25 06:36:48;;;;;;;4.35;1.80;;;20.70;42.90;;;24.33;28.97;101531.22;5052252;28;20081;-8
2021/10/25 06:39:39;;;;;;;3.33;2.00;;;20.70;42.80;;;24.36;28.85;101527.50;5049758;28;20137;-8
2021/10/25 06:42:09;;;;;;;3.08;1.55;;;20.80;42.80;;;24.40;28.81;101532.53;5052016;28;20053;-8
2021/10/25 06:44:53;;;;;;;6.53;1.63;;;20.80;42.80;;;24.42;29.18;101532.44;5051164;28;20413;-8
2021/10/25 06:47:23;;;;;;;12.70;1.92;;;20.80;42.80;;;24.44;28.72;101532.31;5050793;28;20049;-8
2021/10/25 06:49:50;;;;;;;5.15;1.95;;;20.70;42.90;;;24.42;28.96;101537.78;5050654;28;20099;-8
2021/10/25 06:52:16;;;;;;;4.93;1.80;;;20.70;43.00;;;24.44;28.96;101533.22;5032723;28;20152;-8
2021/10/25 06:54:42;;;;;;;3.63;1.70;;;20.70;43.00;;;24.45;28.79;101536.72;5034141;28;20132;-8
2021/10/25 06:57:09;;;;;;;3.97;1.90;;;20.70;42.90;;;24.48;28.80;101531.19;5034236;28;20049;-8
2021/10/25 06:59:38;;;;;;;4.07;1.77;;;20.80;42.80;;;24.49;28.77;101539.09;5033972;28;20064;-8
2021/10/25 07:02:06;;;;;;;2.42;1.50;;;20.80;42.80;;;24.52;28.89;101540.69;5034416;28;20432;-8
2021/10/25 07:04:32;;;;;;;2.35;1.52;;;20.70;42.90;;;24.50;28.79;101540.78;5032934;28;20049;-8
2021/10/25 07:06:58;;;;;;;2.47;1.70;;;20.80;42.90;;;24.54;28.66;101545.00;5017561;28;20084;-8
2021/10/25 07:09:24;;;;;;;2.75;1.80;;;20.80;42.90;;;24.56;28.65;101559.16;5033366;28;20512;-7
2021/10/25 07:11:50;;;;;;;3.00;1.75;;;20.80;42.80;;;24.55;28.74;101554.75;5032975;28;20053;-8
2021/10/25 07:14:23;;;;;;;3.30;2.13;;;20.80;42.90;;;24.57;28.80;101555.53;5032245;28;20448;-8
2021/10/25 07:17:02;;;;;;;3.67;1.60;;;20.80;42.90;;;24.55;28.73;101552.06;5034255;28;20045;-8
2021/10/25 07:19:49;;;;;;;3.28;1.60;;;20.70;42.90;;;24.55;28.65;101552.06;5049857;28;20135;-8
2021/10/25 08:09:39;;;;;;;8.63;2.40;;;20.80;42.80;;;24.61;28.57;101566.88;5006045;28;20040;-9
2021/10/25 08:12:13;;;;;;;7.72;3.15;;;20.80;42.80;;;24.65;28.57;101564.84;5053269;28;20049;-8
2021/10/25 08:14:43;;;;;;;4.65;1.80;;;20.90;42.70;;;24.66;28.47;101566.53;5035999;28;20045;-9
2021/10/25 08:17:15;;;;;;;11.40;2.35;;;20.90;42.70;;;24.66;28.57;101559.41;5036278;28;20080;-9
2021/10/25 08:19:41;;;;;;;9.02;2.78;;;20.90;42.70;;;24.66;28.52;101563.88;5053319;28;20489;-9
2021/10/25 08:22:14;;;;;;;7.18;2.15;;;20.90;42.70;;;24.63;28.39;101551.56;5036077;28;20401;-9
2021/10/25 08:24:45;;;;;;;5.25;2.33;;;20.80;42.70;;;24.64;28.49;101563.13;5036067;28;20145;-9
2021/10/25 08:27:21;;;;;;;8.30;2.72;;;20.70;42.80;;;24.63;28.35;101546.22;5054214;28;20060;-9
2021/10/25 08:29:48;;;;;;;6.68;2.33;;;20.80;42.90;;;24.63;28.47;101561.41;5035926;28;20052;-9
2021/10/25 08:40:20;;;;;;;6.70;2.50;;;20.70;42.80;;;24.61;28.51;101548.16;5035019;28;20045;-8
2021/10/25 08:42:46;;;;;;;6.22;2.58;;;20.80;42.80;;;24.63;28.66;101561.41;5052881;28;20088;-8
2021/10/25 08:45:18;;;;;;;7.45;2.80;;;20.80;42.80;;;24.63;28.42;101570.28;5036116;28;20549;-8
2021/10/25 08:47:48;;;;;;;6.67;3.03;;;20.80;42.90;;;24.61;28.43;101558.84;5053960;28;20409;-8
2021/10/25 08:50:22;;;;;;;8.77;2.53;;;20.80;42.90;;;24.65;28.57;101562.16;5035721;28;20049;-8
2021/10/25 08:52:52;;;;;;;9.52;2.95;;;20.80;42.90;;;24.64;28.39;101545.28;5050406;28;20096;-8
2021/10/25 08:55:28;;;;;;;6.85;3.05;;;20.70;43.00;;;24.62;28.47;101535.63;5052693;28;20048;-8
2021/10/25 08:57:55;;;;;;;6.53;2.80;;;20.70;43.00;;;24.63;28.70;101545.38;5051937;28;20118;-8
2021/10/25 09:00:51;;;;;;;5.75;2.53;;;20.70;43.10;;;24.59;28.68;101534.88;5052113;28;20060;-9
2021/10/25 09:03:39;;;;;;;7.50;2.47;;;20.70;43.20;;;24.63;28.52;101551.56;5053005;28;20128;-10
2021/10/25 09:06:16;;;;;;;7.05;3.13;;;20.70;43.20;;;24.62;28.67;101544.50;5035807;28;20044;-9
2021/10/25 09:09:02;;;;;;;7.68;2.75;;;20.70;43.20;;;24.58;28.63;101526.97;5051926;28;20044;-9
2021/10/25 09:11:28;;;;;;;10.30;2.72;;;20.70;43.20;;;24.60;28.44;101527.72;5033356;28;20056;-9
2021/10/25 09:14:15;;;;;;;8.73;2.50;;;20.70;43.10;;;24.59;28.74;101526.88;5052055;28;20174;-9
2021/10/25 09:16:44;;;;;;;11.73;3.22;;;20.70;43.00;;;24.61;28.59;101516.06;5051852;28;20049;-9
2021/10/25 09:19:18;;;;;;;7.43;2.72;;;20.70;43.00;;;24.62;28.61;101528.47;5053166;28;20439;-7
2021/10/25 09:21:44;;;;;;;7.47;3.40;;;20.80;43.00;;;24.63;28.62;101530.19;5051943;28;20055;-9
2021/10/25 09:24:23;;;;;;;9.30;3.28;;;20.80;43.00;;;24.59;28.78;101521.50;5034818;28;20072;-9
2021/10/25 09:27:03;;;;;;;8.88;3.15;;;20.80;43.10;;;24.62;28.71;101519.59;5035639;28;20051;-8
2021/10/25 09:29:32;;;;;;;12.68;3.00;;;20.70;43.10;;;24.63;28.69;101510.63;5051526;28;20045;-9
2021/10/25 09:32:13;;;;;;;12.63;3.95;;;20.70;43.00;;;24.62;28.52;101495.53;5051599;28;20057;-9
2021/10/25 09:35:00;;;;;;;9.30;2.90;;;20.70;43.10;;;24.60;28.53;101491.13;5051694;28;20044;-9
2021/10/25 09:37:53;;;;;;;12.57;3.10;;;20.70;43.10;;;24.63;28.58;101495.41;5050348;28;20474;-8
2021/10/25 09:40:34;;;;;;;12.25;3.28;;;20.70;43.10;;;24.62;28.80;101495.53;5035742;28;20049;-9
2021/10/25 09:45:49;;;;;;;16.20;4.03;;;20.80;42.90;;;24.66;28.61;101494.34;5034724;28;20057;-9
2021/10/25 09:51:20;;;;;;;11.50;2.85;;;20.80;42.90;;;24.70;28.55;101519.94;5030953;28;20041;-6
2021/10/25 09:53:56;;;;;;;13.25;3.38;;;20.80;43.00;;;24.69;28.52;101528.91;5034501;28;20473;-8
2021/10/25 09:56:36;;;;;;;12.05;3.40;;;20.80;42.90;;;24.68;28.44;101530.72;5047319;28;20079;-8
2021/10/25 09:59:46;;;;;;;17.45;4.05;;;20.90;42.90;;;24.73;28.34;101520.56;5048065;28;20044;-9
2021/10/25 10:02:37;;;;;;;9.32;3.15;;;21.00;42.70;;;24.70;28.46;101517.25;5044677;28;20036;-8
2021/10/25 10:05:17;;;;;;;9.45;3.35;;;21.00;42.60;;;24.69;28.46;101519.09;5059237;28;20476;-8
2021/10/25 10:07:54;;;;;;;10.55;3.38;;;21.00;42.60;;;24.73;28.43;101515.22;5071183;28;20129;-8
2021/10/25 10:10:36;;;;;;;10.02;3.25;;;21.10;42.50;;;24.73;28.68;101509.03;5054183;28;20492;-8
2021/10/25 10:13:23;;;;;;;14.38;3.05;;;21.10;42.30;;;24.76;28.46;101508.84;5052998;28;20142;-8
2021/10/25 10:16:17;;;;;;;8.57;3.00;;;21.20;42.30;;;24.84;28.48;101505.63;5037291;28;20456;-8
2021/10/25 10:18:56;;;;;;;10.48;2.92;;;21.20;42.20;;;24.81;28.30;101498.66;5066918;28;20136;-8
2021/10/25 10:21:59;;;;;;;10.10;3.03;;;21.20;42.20;;;24.85;28.36;101504.66;5016435;28;20122;-7
2021/10/25 10:24:36;;;;;;;7.22;2.88;;;21.20;42.40;;;24.84;28.68;101490.44;5034155;28;20053;-8
2021/10/25 10:27:09;;;;;;;9.88;2.92;;;21.10;42.50;;;24.85;28.57;101502.84;5072346;28;20059;-7
2021/10/25 10:29:40;;;;;;;11.40;3.95;;;21.10;42.50;;;24.81;28.54;101492.44;5072647;28;20051;-7
2021/10/25 10:32:16;;;;;;;9.15;3.00;;;21.10;42.50;;;24.81;28.38;101496.00;5052334;28;20088;-12
2021/10/25 10:35:09;;;;;;;10.77;2.92;;;21.10;42.60;;;24.86;28.30;101498.34;5047341;28;20045;-9
2021/10/25 10:38:05;;;;;;;11.25;3.30;;;21.10;42.70;;;24.83;28.61;101488.72;5050178;28;20502;-7
2021/10/25 10:40:52;;;;;;;12.55;3.08;;;21.10;42.60;;;24.82;28.52;101492.34;5033333;28;20056;-8
2021/10/25 10:43:41;;;;;;;12.15;3.47;;;21.10;42.70;;;24.81;28.49;101500.47;5052735;28;20095;-8
2021/10/25 10:46:19;;;;;;;9.60;3.28;;;21.00;42.80;;;24.80;28.33;101498.78;5033359;28;20127;-9
2021/10/25 10:48:58;;;;;;;11.30;2.70;;;21.00;42.90;;;24.78;28.60;101497.03;5054201;28;20077;-11
2021/10/25 10:51:33;;;;;;;9.95;3.97;;;21.00;42.90;;;24.78;28.62;101494.38;5049456;28;20071;-8
2021/10/25 10:54:23;;;;;;;10.32;3.20;;;21.00;42.90;;;24.78;28.57;101488.19;5053626;28;20049;-9
2021/10/25 10:57:06;;;;;;;10.25;3.33;;;20.90;43.00;;;24.77;28.46;101490.00;5069503;28;20072;-8
2021/10/25 10:59:50;;;;;;;13.45;3.13;;;21.00;43.00;;;24.76;28.67;101493.63;5069773;28;20113;-8
2021/10/25 11:02:37;;;;;;;9.25;2.75;;;21.00;42.90;;;24.77;28.54;101503.38;5076988;28;20452;-8
2021/10/25 11:05:09;;;;;;;8.07;3.08;;;21.10;42.80;;;24.80;28.50;101507.66;5075520;28;20550;-8
2021/10/25 11:07:42;;;;;;;10.60;3.40;;;21.10;42.60;;;24.80;28.41;101507.66;5075435;28;20083;-8
2021/10/25 11:10:10;;;;;;;9.82;2.92;;;21.10;42.70;;;24.81;28.55;101509.38;5075277;28;20052;-8
2021/10/25 11:12:45;;;;;;;13.00;2.70;;;21.20;42.70;;;24.81;28.53;101497.78;5073144;28;20057;-8
2021/10/25 11:15:20;;;;;;;7.90;3.15;;;21.10;42.60;;;24.84;28.59;101502.94;5075091;28;20048;-7
2021/10/25 11:17:50;;;;;;;11.43;3.17;;;21.20;42.60;;;24.82;28.48;101504.88;5075192;28;20048;-9
2021/10/25 11:20:27;;;;;;;7.53;2.97;;;21.20;42.60;;;24.81;28.52;101506.69;5055375;28;20056;-9
2021/10/25 11:23:05;;;;;;;12.52;3.63;;;21.20;42.60;;;24.83;28.60;101501.25;5075068;28;20078;-9
2021/10/25 11:25:45;;;;;;;13.52;3.70;;;21.30;42.60;;;24.86;28.73;101496.53;5072919;28;20055;-9
2021/10/25 11:28:17;;;;;;;12.52;3.42;;;21.20;42.50;;;24.90;28.42;101491.81;5055841;28;20053;-10
2021/10/25 11:30:46;;;;;;;13.00;4.10;;;21.20;42.50;;;24.89;28.35;101493.66;5075107;28;20052;-9
2021/10/25 11:33:17;;;;;;;9.80;2.42;;;21.30;42.50;;;24.94;28.38;101482.63;5064872;28;20052;-10
2021/10/25 11:35:48;;;;;;;11.75;3.53;;;21.20;42.60;;;24.94;28.40;101487.97;5054553;28;20041;-7
2021/10/25 11:38:16;;;;;;;7.53;2.97;;;21.20;42.60;;;24.92;28.43;101476.53;5054628;28;20065;-7
2021/10/25 11:40:44;;;;;;;9.23;3.28;;;21.20;42.60;;;24.91;28.55;101474.81;5054548;28;20048;-7
2021/10/25 11:43:10;;;;;;;11.32;3.20;;;21.30;42.60;;;24.95;28.29;101476.31;5054616;28;20085;-7
2021/10/25 11:45:36;;;;;;;8.40;3.08;;;21.20;42.60;;;24.93;28.38;101471.06;5054267;28;20045;-7
2021/10/25 11:48:02;;;;;;;12.85;3.63;;;21.20;42.70;;;24.92;28.50;101464.00;5053687;28;20122;-7
2021/10/25 11:50:31;;;;;;;9.60;3.67;;;21.10;42.80;;;24.94;28.39;101466.56;5051652;28;20053;-8
2021/10/25 11:53:08;;;;;;;14.07;3.20;;;21.20;42.80;;;24.94;28.64;101471.91;5050255;28;20052;-9
2021/10/25 11:55:40;;;;;;;12.95;3.83;;;21.20;42.80;;;24.92;28.51;101466.66;5058980;28;20163;-8
2021/10/25 11:58:13;;;;;;;10.00;3.33;;;21.10;42.90;;;24.93;28.40;101459.53;5061965;28;20040;-9
2021/10/25 12:00:48;;;;;;;14.65;3.50;;;21.10;42.90;;;24.91;28.64;101459.63;5032776;28;20041;-8
2021/10/25 12:03:27;;;;;;;9.85;3.40;;;21.10;42.90;;;24.93;28.60;101460.38;5032497;28;20578;-7
2021/10/25 12:05:55;;;;;;;8.10;2.78;;;21.10;42.90;;;24.91;28.57;101462.31;5033031;28;20049;-8
2021/10/25 12:08:21;;;;;;;7.80;2.75;;;21.10;42.90;;;24.92;28.55;101466.66;5033969;28;20482;-8
2021/10/25 12:10:49;;;;;;;10.82;3.55;;;21.00;43.00;;;24.89;28.57;101461.56;5046244;28;20064;-8